sensor_id;sensor_type;location;lat;lon;timestamp;pressure;altitude;pressure_sealevel;temperature;humidity
44297;BME280;51842;47.450;8.654;2023-03-13T00:01:45;95298.69;;;5.39;98.73
44297;BME280;51842;47.450;8.654;2023-03-13T00:04:15;95301.69;;;5.42;98.64
44297;BME280;51842;47.450;8.654;2023-03-13T00:06:46;95298.78;;;5.44;98.62
44297;BME280;51842;47.450;8.654;2023-03-13T00:09:15;95291.66;;;5.44;98.49
44297;BME280;51842;47.450;8.654;2023-03-13T00:11:44;95292.78;;;5.48;98.29
44297;BME280;51842;47.450;8.654;2023-03-13T00:14:10;95292.06;;;5.53;97.75
44297;BME280;51842;47.450;8.654;2023-03-13T00:16:37;95298.00;;;5.60;97.20
44297;BME280;51842;47.450;8.654;2023-03-13T00:19:11;95295.66;;;5.64;96.92
44297;BME280;51842;47.450;8.654;2023-03-13T00:21:37;95281.97;;;5.67;96.29
44297;BME280;51842;47.450;8.654;2023-03-13T00:24:09;95287.59;;;5.70;96.32
44297;BME280;51842;47.450;8.654;2023-03-13T00:26:36;95279.09;;;5.68;96.03
44297;BME280;51842;47.450;8.654;2023-03-13T00:29:07;95281.00;;;5.73;95.90
44297;BME280;51842;47.450;8.654;2023-03-13T00:31:33;95272.38;;;5.77;95.11
44297;BME280;51842;47.450;8.654;2023-03-13T00:34:03;95268.19;;;5.82;94.73
44297;BME280;51842;47.450;8.654;2023-03-13T00:36:33;95265.06;;;5.85;94.36
44297;BME280;51842;47.450;8.654;2023-03-13T00:39:01;95263.22;;;5.85;94.08
44297;BME280;51842;47.450;8.654;2023-03-13T00:41:32;95271.47;;;5.89;93.75
44297;BME280;51842;47.450;8.654;2023-03-13T00:43:59;95269.09;;;5.87;93.92
44297;BME280;51842;47.450;8.654;2023-03-13T00:46:29;95274.38;;;5.87;93.82
44297;BME280;51842;47.450;8.654;2023-03-13T00:48:58;95273.78;;;5.85;93.60
44297;BME280;51842;47.450;8.654;2023-03-13T00:51:26;95263.72;;;5.82;93.39
44297;BME280;51842;47.450;8.654;2023-03-13T00:53:54;95264.75;;;5.81;93.72
44297;BME280;51842;47.450;8.654;2023-03-13T00:56:23;95255.94;;;5.75;93.78
44297;BME280;51842;47.450;8.654;2023-03-13T00:58:50;95262.75;;;5.71;94.15
44297;BME280;51842;47.450;8.654;2023-03-13T01:01:34;95262.44;;;5.68;94.59
44297;BME280;51842;47.450;8.654;2023-03-13T01:04:09;95265.41;;;5.71;94.49
44297;BME280;51842;47.450;8.654;2023-03-13T01:06:39;95262.50;;;5.73;94.49
44297;BME280;51842;47.450;8.654;2023-03-13T01:09:12;95266.53;;;5.75;94.30
44297;BME280;51842;47.450;8.654;2023-03-13T01:11:42;95255.94;;;5.75;94.49
44297;BME280;51842;47.450;8.654;2023-03-13T01:14:15;95263.88;;;5.75;94.33
44297;BME280;51842;47.450;8.654;2023-03-13T01:16:41;95251.47;;;5.76;94.61
44297;BME280;51842;47.450;8.654;2023-03-13T01:19:15;95246.66;;;5.73;95.01
44297;BME280;51842;47.450;8.654;2023-03-13T01:21:44;95242.69;;;5.70;94.71
44297;BME280;51842;47.450;8.654;2023-03-13T01:24:16;95244.81;;;5.73;94.26
44297;BME280;51842;47.450;8.654;2023-03-13T01:26:43;95238.00;;;5.77;93.93
44297;BME280;51842;47.450;8.654;2023-03-13T01:29:09;95241.28;;;5.85;93.78
44297;BME280;51842;47.450;8.654;2023-03-13T01:31:36;95241.06;;;5.86;93.13
44297;BME280;51842;47.450;8.654;2023-03-13T01:34:05;95231.59;;;5.90;92.89
44297;BME280;51842;47.450;8.654;2023-03-13T01:36:35;95243.75;;;5.91;92.69
44297;BME280;51842;47.450;8.654;2023-03-13T01:39:04;95233.19;;;5.91;92.68
44297;BME280;51842;47.450;8.654;2023-03-13T01:41:37;95230.34;;;5.93;92.27
44297;BME280;51842;47.450;8.654;2023-03-13T01:44:03;95225.06;;;5.93;91.69
44297;BME280;51842;47.450;8.654;2023-03-13T01:46:29;95230.06;;;5.94;91.94
44297;BME280;51842;47.450;8.654;2023-03-13T01:49:26;95222.72;;;5.96;91.81
44297;BME280;51842;47.450;8.654;2023-03-13T01:52:09;95218.44;;;5.95;91.46
44297;BME280;51842;47.450;8.654;2023-03-13T01:54:53;95215.28;;;5.93;91.10
44297;BME280;51842;47.450;8.654;2023-03-13T01:57:38;95215.56;;;5.97;90.57
44297;BME280;51842;47.450;8.654;2023-03-13T02:00:14;95205.88;;;6.02;90.42
44297;BME280;51842;47.450;8.654;2023-03-13T02:02:55;95195.53;;;6.01;90.69
44297;BME280;51842;47.450;8.654;2023-03-13T02:05:27;95194.44;;;5.97;90.83
44297;BME280;51842;47.450;8.654;2023-03-13T02:08:11;95191.47;;;5.93;90.93
44297;BME280;51842;47.450;8.654;2023-03-13T02:13:49;95189.84;;;5.92;90.32
44297;BME280;51842;47.450;8.654;2023-03-13T02:16:18;95190.56;;;5.88;90.28
44297;BME280;51842;47.450;8.654;2023-03-13T02:18:45;95190.00;;;5.86;90.17
44297;BME280;51842;47.450;8.654;2023-03-13T02:21:41;95191.06;;;5.85;90.04
44297;BME280;51842;47.450;8.654;2023-03-13T02:27:38;95187.69;;;5.89;90.20
44297;BME280;51842;47.450;8.654;2023-03-13T02:30:08;95188.50;;;5.90;89.94
44297;BME280;51842;47.450;8.654;2023-03-13T02:32:38;95185.84;;;5.90;90.00
44297;BME280;51842;47.450;8.654;2023-03-13T02:35:13;95180.56;;;5.90;89.47
44297;BME280;51842;47.450;8.654;2023-03-13T02:37:47;95182.94;;;5.91;89.98
44297;BME280;51842;47.450;8.654;2023-03-13T02:40:30;95168.63;;;5.87;90.35
44297;BME280;51842;47.450;8.654;2023-03-13T02:43:15;95163.34;;;5.87;90.10
44297;BME280;51842;47.450;8.654;2023-03-13T02:46:16;95164.88;;;5.83;91.09
44297;BME280;51842;47.450;8.654;2023-03-13T02:48:47;95153.19;;;5.79;90.67
44297;BME280;51842;47.450;8.654;2023-03-13T02:51:35;95140.22;;;5.77;91.02
44297;BME280;51842;47.450;8.654;2023-03-13T02:54:13;95142.56;;;5.74;90.84
44297;BME280;51842;47.450;8.654;2023-03-13T02:56:50;95144.63;;;5.72;91.06
44297;BME280;51842;47.450;8.654;2023-03-13T02:59:17;95137.69;;;5.66;91.48
44297;BME280;51842;47.450;8.654;2023-03-13T03:01:42;95140.59;;;5.64;91.50
44297;BME280;51842;47.450;8.654;2023-03-13T03:04:12;95140.03;;;5.62;90.99
44297;BME280;51842;47.450;8.654;2023-03-13T03:06:38;95139.44;;;5.60;91.53
44297;BME280;51842;47.450;8.654;2023-03-13T03:09:04;95138.91;;;5.58;91.55
44297;BME280;51842;47.450;8.654;2023-03-13T03:11:30;95136.97;;;5.53;91.50
44297;BME280;51842;47.450;8.654;2023-03-13T03:14:05;95139.94;;;5.57;91.33
44297;BME280;51842;47.450;8.654;2023-03-13T03:16:34;95145.31;;;5.62;90.81
44297;BME280;51842;47.450;8.654;2023-03-13T03:19:03;95146.09;;;5.63;91.18
44297;BME280;51842;47.450;8.654;2023-03-13T03:21:32;95150.09;;;5.65;91.09
44297;BME280;51842;47.450;8.654;2023-03-13T03:23:58;95150.91;;;5.66;91.44
44297;BME280;51842;47.450;8.654;2023-03-13T03:26:30;95147.94;;;5.62;91.34
44297;BME280;51842;47.450;8.654;2023-03-13T03:28:56;95145.59;;;5.66;91.73
44297;BME280;51842;47.450;8.654;2023-03-13T03:31:23;95153.78;;;5.64;91.20
44297;BME280;51842;47.450;8.654;2023-03-13T03:33:50;95151.78;;;5.71;91.58
44297;BME280;51842;47.450;8.654;2023-03-13T03:36:20;95137.59;;;5.77;89.61
44297;BME280;51842;47.450;8.654;2023-03-13T03:38:48;95140.75;;;5.79;89.66
44297;BME280;51842;47.450;8.654;2023-03-13T03:41:18;95142.75;;;5.89;89.71
44297;BME280;51842;47.450;8.654;2023-03-13T03:44:00;95138.91;;;5.97;90.05
44297;BME280;51842;47.450;8.654;2023-03-13T03:46:29;95124.63;;;5.98;89.32
44297;BME280;51842;47.450;8.654;2023-03-13T03:48:55;95130.47;;;6.00;89.06
44297;BME280;51842;47.450;8.654;2023-03-13T03:51:22;95135.28;;;6.03;89.18
44297;BME280;51842;47.450;8.654;2023-03-13T03:53:50;95130.56;;;6.05;88.69
44297;BME280;51842;47.450;8.654;2023-03-13T03:56:16;95136.94;;;6.09;88.60
44297;BME280;51842;47.450;8.654;2023-03-13T03:58:42;95140.94;;;6.12;88.54
44297;BME280;51842;47.450;8.654;2023-03-13T04:01:08;95138.03;;;6.13;88.26
44297;BME280;51842;47.450;8.654;2023-03-13T04:03:36;95132.56;;;6.20;87.58
44297;BME280;51842;47.450;8.654;2023-03-13T04:06:03;95134.78;;;6.28;86.96
44297;BME280;51842;47.450;8.654;2023-03-13T04:08:34;95143.88;;;6.37;86.69
44297;BME280;51842;47.450;8.654;2023-03-13T04:11:01;95138.94;;;6.46;85.40
44297;BME280;51842;47.450;8.654;2023-03-13T04:13:30;95135.59;;;6.56;84.33
44297;BME280;51842;47.450;8.654;2023-03-13T04:15:58;95139.38;;;6.65;82.92
44297;BME280;51842;47.450;8.654;2023-03-13T04:18:24;95145.00;;;6.73;83.04
44297;BME280;51842;47.450;8.654;2023-03-13T04:20:58;95133.19;;;6.81;82.22
44297;BME280;51842;47.450;8.654;2023-03-13T04:23:30;95115.50;;;6.87;84.17
44297;BME280;51842;47.450;8.654;2023-03-13T04:25:56;95112.28;;;6.85;83.36
44297;BME280;51842;47.450;8.654;2023-03-13T04:28:22;95119.50;;;6.89;83.18
44297;BME280;51842;47.450;8.654;2023-03-13T04:30:48;95127.72;;;6.93;83.61
44297;BME280;51842;47.450;8.654;2023-03-13T04:33:14;95113.47;;;6.99;82.88
44297;BME280;51842;47.450;8.654;2023-03-13T04:35:43;95111.66;;;7.05;81.79
44297;BME280;51842;47.450;8.654;2023-03-13T04:38:09;95108.53;;;7.13;81.76
44297;BME280;51842;47.450;8.654;2023-03-13T04:40:35;95108.81;;;7.16;82.02
44297;BME280;51842;47.450;8.654;2023-03-13T04:43:04;95114.41;;;7.20;81.27
44297;BME280;51842;47.450;8.654;2023-03-13T04:45:32;95100.41;;;7.25;80.66
44297;BME280;51842;47.450;8.654;2023-03-13T04:48:01;95102.84;;;7.31;81.12
44297;BME280;51842;47.450;8.654;2023-03-13T04:50:27;95107.63;;;7.34;80.06
44297;BME280;51842;47.450;8.654;2023-03-13T04:52:55;95107.91;;;7.38;80.53
44297;BME280;51842;47.450;8.654;2023-03-13T04:55:22;95108.19;;;7.41;80.28
44297;BME280;51842;47.450;8.654;2023-03-13T04:57:51;95100.78;;;7.44;78.39
44297;BME280;51842;47.450;8.654;2023-03-13T05:00:25;95094.22;;;7.51;79.30
44297;BME280;51842;47.450;8.654;2023-03-13T05:02:57;95089.19;;;7.55;80.04
44297;BME280;51842;47.450;8.654;2023-03-13T05:05:23;95090.53;;;7.57;79.68
44297;BME280;51842;47.450;8.654;2023-03-13T05:07:52;95093.69;;;7.54;79.06
44297;BME280;51842;47.450;8.654;2023-03-13T05:10:27;95088.44;;;7.59;78.85
44297;BME280;51842;47.450;8.654;2023-03-13T05:12:53;95099.03;;;7.64;77.97
44297;BME280;51842;47.450;8.654;2023-03-13T05:15:19;95099.34;;;7.68;76.79
44297;BME280;51842;47.450;8.654;2023-03-13T05:17:44;95098.31;;;7.74;76.52
44297;BME280;51842;47.450;8.654;2023-03-13T05:20:13;95103.09;;;7.77;75.89
44297;BME280;51842;47.450;8.654;2023-03-13T05:22:39;95100.47;;;7.82;74.95
44297;BME280;51842;47.450;8.654;2023-03-13T05:25:05;95101.84;;;7.90;75.19
44297;BME280;51842;47.450;8.654;2023-03-13T05:27:34;95091.22;;;7.90;74.76
44297;BME280;51842;47.450;8.654;2023-03-13T05:30:00;95100.78;;;7.91;73.80
44297;BME280;51842;47.450;8.654;2023-03-13T05:32:29;95090.94;;;7.92;73.52
44297;BME280;51842;47.450;8.654;2023-03-13T05:34:58;95092.53;;;7.93;73.46
44297;BME280;51842;47.450;8.654;2023-03-13T05:37:32;95097.56;;;7.89;72.46
44297;BME280;51842;47.450;8.654;2023-03-13T05:39:58;95091.75;;;7.87;72.61
44297;BME280;51842;47.450;8.654;2023-03-13T05:42:27;95081.66;;;7.84;72.73
44297;BME280;51842;47.450;8.654;2023-03-13T05:44:55;95087.75;;;7.84;73.27
44297;BME280;51842;47.450;8.654;2023-03-13T05:47:27;95076.88;;;7.86;72.85
44297;BME280;51842;47.450;8.654;2023-03-13T05:50:03;95090.91;;;7.86;73.68
44297;BME280;51842;47.450;8.654;2023-03-13T05:52:32;95087.75;;;7.84;72.25
44297;BME280;51842;47.450;8.654;2023-03-13T05:55:01;95091.75;;;7.87;72.53
44297;BME280;51842;47.450;8.654;2023-03-13T05:57:34;95088.03;;;7.88;71.90
44297;BME280;51842;47.450;8.654;2023-03-13T06:00:00;95087.00;;;7.94;71.70
44297;BME280;51842;47.450;8.654;2023-03-13T06:02:33;95087.81;;;8.00;73.17
44297;BME280;51842;47.450;8.654;2023-03-13T06:05:05;95084.63;;;7.98;71.40
44297;BME280;51842;47.450;8.654;2023-03-13T06:07:34;95088.34;;;8.02;70.83
44297;BME280;51842;47.450;8.654;2023-03-13T06:10:00;95086.50;;;8.07;70.70
44297;BME280;51842;47.450;8.654;2023-03-13T06:12:26;95074.59;;;8.15;71.11
44297;BME280;51842;47.450;8.654;2023-03-13T06:14:52;95079.91;;;8.20;70.37
44297;BME280;51842;47.450;8.654;2023-03-13T06:17:18;95080.72;;;8.26;70.63
44297;BME280;51842;47.450;8.654;2023-03-13T06:19:46;95072.78;;;8.31;70.55
44297;BME280;51842;47.450;8.654;2023-03-13T06:22:12;95080.47;;;8.32;69.56
44297;BME280;51842;47.450;8.654;2023-03-13T06:24:38;95075.47;;;8.41;70.08
44297;BME280;51842;47.450;8.654;2023-03-13T06:27:06;95075.22;;;8.48;70.75
44297;BME280;51842;47.450;8.654;2023-03-13T06:29:32;95074.69;;;8.51;69.33
44297;BME280;51842;47.450;8.654;2023-03-13T06:31:58;95075.50;;;8.56;69.73
44297;BME280;51842;47.450;8.654;2023-03-13T06:34:27;95077.63;;;8.60;69.54
44297;BME280;51842;47.450;8.654;2023-03-13T06:36:52;95071.00;;;8.62;69.75
44297;BME280;51842;47.450;8.654;2023-03-13T06:39:21;95075.50;;;8.67;70.38
44297;BME280;51842;47.450;8.654;2023-03-13T06:41:47;95074.72;;;8.66;68.94
44297;BME280;51842;47.450;8.654;2023-03-13T06:44:16;95072.31;;;8.70;69.48
44297;BME280;51842;47.450;8.654;2023-03-13T06:46:42;95068.91;;;8.74;69.40
44297;BME280;51842;47.450;8.654;2023-03-13T06:49:11;95060.66;;;8.81;69.32
44297;BME280;51842;47.450;8.654;2023-03-13T06:51:39;95066.22;;;8.85;68.95
44297;BME280;51842;47.450;8.654;2023-03-13T06:54:05;95067.81;;;8.86;68.93
44297;BME280;51842;47.450;8.654;2023-03-13T06:56:31;95077.13;;;8.93;69.26
44297;BME280;51842;47.450;8.654;2023-03-13T06:58:57;95068.63;;;8.96;67.92
44297;BME280;51842;47.450;8.654;2023-03-13T07:01:23;95079.25;;;9.07;68.05
44297;BME280;51842;47.450;8.654;2023-03-13T07:03:51;95067.00;;;9.11;68.16
44297;BME280;51842;47.450;8.654;2023-03-13T07:06:17;95057.72;;;9.18;67.97
44297;BME280;51842;47.450;8.654;2023-03-13T07:08:43;95053.72;;;9.31;66.91
44297;BME280;51842;47.450;8.654;2023-03-13T07:11:13;95044.63;;;9.42;67.52
44297;BME280;51842;47.450;8.654;2023-03-13T07:13:39;95051.22;;;9.55;67.27
44297;BME280;51842;47.450;8.654;2023-03-13T07:16:11;95039.22;;;9.68;67.35
44297;BME280;51842;47.450;8.654;2023-03-13T07:18:39;95035.47;;;9.79;66.44
44297;BME280;51842;47.450;8.654;2023-03-13T07:21:11;95044.19;;;9.90;66.97
44297;BME280;51842;47.450;8.654;2023-03-13T07:23:37;95050.78;;;10.03;66.23
44297;BME280;51842;47.450;8.654;2023-03-13T07:26:13;95052.09;;;10.15;65.62
44297;BME280;51842;47.450;8.654;2023-03-13T07:28:41;95038.19;;;10.29;65.07
44297;BME280;51842;47.450;8.654;2023-03-13T07:31:17;95047.97;;;10.44;65.15
44297;BME280;51842;47.450;8.654;2023-03-13T07:33:44;95050.22;;;10.60;65.51
44297;BME280;51842;47.450;8.654;2023-03-13T07:36:16;95052.25;;;10.74;65.85
44297;BME280;51842;47.450;8.654;2023-03-13T07:38:50;95050.59;;;10.83;65.29
44297;BME280;51842;47.450;8.654;2023-03-13T07:41:18;95054.47;;;10.96;64.05
44297;BME280;51842;47.450;8.654;2023-03-13T07:43:45;95057.38;;;10.99;63.52
44297;BME280;51842;47.450;8.654;2023-03-13T07:46:18;95061.59;;;11.05;63.02
44297;BME280;51842;47.450;8.654;2023-03-13T07:48:46;95066.84;;;11.16;61.84
44297;BME280;51842;47.450;8.654;2023-03-13T07:51:22;95058.38;;;11.08;61.36
44297;BME280;51842;47.450;8.654;2023-03-13T07:53:50;95055.13;;;11.17;61.04
44297;BME280;51842;47.450;8.654;2023-03-13T07:56:29;95062.31;;;11.16;60.72
44297;BME280;51842;47.450;8.654;2023-03-13T07:59:00;95059.22;;;11.33;62.00
44297;BME280;51842;47.450;8.654;2023-03-13T08:01:38;95050.50;;;11.51;60.40
44297;BME280;51842;47.450;8.654;2023-03-13T08:04:04;95050.34;;;11.67;61.12
44297;BME280;51842;47.450;8.654;2023-03-13T08:06:33;95046.41;;;11.88;59.72
44297;BME280;51842;47.450;8.654;2023-03-13T08:09:07;95038.69;;;12.06;58.49
44297;BME280;51842;47.450;8.654;2023-03-13T08:11:37;95042.25;;;12.20;59.10
44297;BME280;51842;47.450;8.654;2023-03-13T08:14:06;95035.31;;;12.38;57.01
44297;BME280;51842;47.450;8.654;2023-03-13T08:16:34;95028.59;;;12.59;59.18
44297;BME280;51842;47.450;8.654;2023-03-13T08:19:08;95029.63;;;12.63;56.01
44297;BME280;51842;47.450;8.654;2023-03-13T08:21:37;95037.44;;;12.60;56.08
44297;BME280;51842;47.450;8.654;2023-03-13T08:24:09;95027.97;;;12.67;57.13
44297;BME280;51842;47.450;8.654;2023-03-13T08:26:41;95028.47;;;12.69;56.23
44297;BME280;51842;47.450;8.654;2023-03-13T08:29:12;95026.06;;;12.68;55.34
44297;BME280;51842;47.450;8.654;2023-03-13T08:31:49;95021.53;;;12.68;56.29
44297;BME280;51842;47.450;8.654;2023-03-13T08:34:18;95023.13;;;12.69;55.96
44297;BME280;51842;47.450;8.654;2023-03-13T08:36:45;95019.03;;;12.91;55.06
44297;BME280;51842;47.450;8.654;2023-03-13T08:39:18;95007.81;;;13.22;54.69
44297;BME280;51842;47.450;8.654;2023-03-13T08:41:45;95008.84;;;13.26;52.93
44297;BME280;51842;47.450;8.654;2023-03-13T08:44:16;95001.22;;;13.33;53.05
44297;BME280;51842;47.450;8.654;2023-03-13T08:46:43;94995.88;;;13.47;54.10
44297;BME280;51842;47.450;8.654;2023-03-13T08:49:13;94993.19;;;13.47;52.39
44297;BME280;51842;47.450;8.654;2023-03-13T08:51:45;95000.94;;;13.48;54.44
44297;BME280;51842;47.450;8.654;2023-03-13T08:54:11;94998.34;;;13.43;53.30
44297;BME280;51842;47.450;8.654;2023-03-13T16:48:39;93996.31;;;19.19;41.70
44297;BME280;51842;47.450;8.654;2023-03-13T16:51:05;93989.16;;;18.88;43.34
44297;BME280;51842;47.450;8.654;2023-03-13T16:53:31;93998.50;;;18.55;43.36
44297;BME280;51842;47.450;8.654;2023-03-13T16:55:56;93993.34;;;18.31;46.55
44297;BME280;51842;47.450;8.654;2023-03-13T16:58:22;93985.72;;;18.01;45.69
44297;BME280;51842;47.450;8.654;2023-03-13T17:00:48;93987.81;;;17.76;43.19
44297;BME280;51842;47.450;8.654;2023-03-13T17:03:14;93988.50;;;17.57;44.28
44297;BME280;51842;47.450;8.654;2023-03-13T17:05:40;93973.19;;;17.29;43.62
44297;BME280;51842;47.450;8.654;2023-03-13T17:08:05;93969.78;;;17.17;43.67
44297;BME280;51842;47.450;8.654;2023-03-13T17:10:33;93951.72;;;17.01;44.45
44297;BME280;51842;47.450;8.654;2023-03-13T17:12:59;93944.22;;;16.79;46.65
44297;BME280;51842;47.450;8.654;2023-03-13T17:15:26;93942.94;;;16.48;45.73
44297;BME280;51842;47.450;8.654;2023-03-13T17:17:54;93933.94;;;16.28;47.08
44297;BME280;51842;47.450;8.654;2023-03-13T17:20:28;93921.78;;;16.18;48.52
44297;BME280;51842;47.450;8.654;2023-03-13T17:22:55;93916.13;;;15.95;48.22
44297;BME280;51842;47.450;8.654;2023-03-13T17:25:22;93901.25;;;15.86;49.30
44297;BME280;51842;47.450;8.654;2023-03-13T17:27:48;93904.38;;;15.76;49.43
44297;BME280;51842;47.450;8.654;2023-03-13T17:30:25;93907.72;;;15.60;48.67
44297;BME280;51842;47.450;8.654;2023-03-13T17:32:51;93908.53;;;15.48;49.04
44297;BME280;51842;47.450;8.654;2023-03-13T17:35:20;93903.47;;;15.35;49.95
44297;BME280;51842;47.450;8.654;2023-03-13T17:37:47;93900.13;;;15.25;50.72
44297;BME280;51842;47.450;8.654;2023-03-13T17:40:19;93897.41;;;15.01;51.44
44297;BME280;51842;47.450;8.654;2023-03-13T17:42:46;93897.63;;;14.84;51.70
44297;BME280;51842;47.450;8.654;2023-03-13T17:45:12;93902.63;;;14.73;51.27
44297;BME280;51842;47.450;8.654;2023-03-13T17:47:39;93892.44;;;14.78;50.33
44297;BME280;51842;47.450;8.654;2023-03-13T17:50:26;93886.00;;;14.79;49.78
44297;BME280;51842;47.450;8.654;2023-03-13T17:52:53;93890.31;;;14.72;50.89
44297;BME280;51842;47.450;8.654;2023-03-13T17:55:20;93894.41;;;14.57;52.65
44297;BME280;51842;47.450;8.654;2023-03-13T17:57:47;93880.03;;;14.41;51.85
44297;BME280;51842;47.450;8.654;2023-03-13T18:00:28;93870.72;;;14.26;53.57
44297;BME280;51842;47.450;8.654;2023-03-13T18:02:55;93871.66;;;14.09;52.80
44297;BME280;51842;47.450;8.654;2023-03-13T18:05:21;93866.69;;;13.99;53.88
44297;BME280;51842;47.450;8.654;2023-03-13T18:07:48;93871.63;;;13.88;53.87
44297;BME280;51842;47.450;8.654;2023-03-13T18:10:24;93858.91;;;13.85;54.32
44297;BME280;51842;47.450;8.654;2023-03-13T18:12:52;93863.31;;;13.89;54.62
44297;BME280;51842;47.450;8.654;2023-03-13T18:15:21;93859.25;;;13.83;54.98
44297;BME280;51842;47.450;8.654;2023-03-13T18:17:49;93856.44;;;13.80;54.15
44297;BME280;51842;47.450;8.654;2023-03-13T18:20:28;93850.50;;;13.74;54.68
44297;BME280;51842;47.450;8.654;2023-03-13T18:22:55;93849.97;;;13.60;54.50
44297;BME280;51842;47.450;8.654;2023-03-13T18:25:26;93851.94;;;13.51;53.03
44297;BME280;51842;47.450;8.654;2023-03-13T18:27:52;93858.88;;;13.43;53.54
44297;BME280;51842;47.450;8.654;2023-03-13T18:30:22;93852.81;;;13.34;55.96
44297;BME280;51842;47.450;8.654;2023-03-13T18:32:49;93834.44;;;13.24;51.85
44297;BME280;51842;47.450;8.654;2023-03-13T18:35:16;93845.91;;;13.33;51.72
44297;BME280;51842;47.450;8.654;2023-03-13T18:37:46;93854.34;;;13.35;50.21
44297;BME280;51842;47.450;8.654;2023-03-13T18:40:23;93851.38;;;13.36;51.66
44297;BME280;51842;47.450;8.654;2023-03-13T18:42:49;93855.69;;;13.29;50.12
44297;BME280;51842;47.450;8.654;2023-03-13T18:45:20;93835.84;;;13.30;49.74
44297;BME280;51842;47.450;8.654;2023-03-13T18:47:47;93844.00;;;13.33;50.85
44297;BME280;51842;47.450;8.654;2023-03-13T18:50:30;93834.94;;;13.17;50.85
44297;BME280;51842;47.450;8.654;2023-03-13T18:52:59;93817.19;;;13.12;51.67
44297;BME280;51842;47.450;8.654;2023-03-13T18:55:29;93809.53;;;13.02;51.67
44297;BME280;51842;47.450;8.654;2023-03-13T18:57:56;93831.09;;;12.97;51.31
44297;BME280;51842;47.450;8.654;2023-03-13T19:00:28;93842.00;;;12.83;51.97
44297;BME280;51842;47.450;8.654;2023-03-13T19:02:54;93843.31;;;12.68;52.42
44297;BME280;51842;47.450;8.654;2023-03-13T19:05:20;93831.56;;;12.61;51.90
44297;BME280;51842;47.450;8.654;2023-03-13T19:07:46;93827.91;;;12.65;50.21
44297;BME280;51842;47.450;8.654;2023-03-13T19:10:29;93843.88;;;12.91;48.97
44297;BME280;51842;47.450;8.654;2023-03-13T19:12:56;93843.81;;;13.00;47.97
44297;BME280;51842;47.450;8.654;2023-03-13T19:15:27;93850.34;;;13.20;45.33
44297;BME280;51842;47.450;8.654;2023-03-13T19:17:59;93853.00;;;13.29;47.91
44297;BME280;51842;47.450;8.654;2023-03-13T19:20:25;93854.88;;;13.28;48.02
44297;BME280;51842;47.450;8.654;2023-03-13T19:22:52;93846.56;;;13.21;49.23
44297;BME280;51842;47.450;8.654;2023-03-13T19:25:18;93851.38;;;12.98;49.54
44297;BME280;51842;47.450;8.654;2023-03-13T19:27:47;93843.69;;;12.88;48.84
44297;BME280;51842;47.450;8.654;2023-03-13T19:30:21;93830.25;;;12.76;52.27
44297;BME280;51842;47.450;8.654;2023-03-13T19:32:47;93834.66;;;12.71;48.40
44297;BME280;51842;47.450;8.654;2023-03-13T19:35:14;93843.44;;;12.81;50.34
44297;BME280;51842;47.450;8.654;2023-03-13T19:37:44;93847.22;;;12.80;48.87
44297;BME280;51842;47.450;8.654;2023-03-13T19:40:22;93853.81;;;12.82;47.85
44297;BME280;51842;47.450;8.654;2023-03-13T19:42:49;93852.06;;;12.86;48.30
44297;BME280;51842;47.450;8.654;2023-03-13T19:45:15;93869.19;;;12.85;49.32
44297;BME280;51842;47.450;8.654;2023-03-13T19:47:43;93874.53;;;12.85;48.33
44297;BME280;51842;47.450;8.654;2023-03-13T19:50:20;93890.25;;;12.87;47.88
44297;BME280;51842;47.450;8.654;2023-03-13T19:52:46;93892.91;;;12.95;48.43
44297;BME280;51842;47.450;8.654;2023-03-13T19:55:12;93916.63;;;12.97;47.95
44297;BME280;51842;47.450;8.654;2023-03-13T19:57:39;93930.16;;;13.01;48.09
44297;BME280;51842;47.450;8.654;2023-03-13T20:00:06;93917.88;;;13.00;48.49
44297;BME280;51842;47.450;8.654;2023-03-13T20:02:35;93918.19;;;12.98;48.15
44297;BME280;51842;47.450;8.654;2023-03-13T20:05:00;93923.22;;;12.91;50.63
44297;BME280;51842;47.450;8.654;2023-03-13T20:07:26;93943.69;;;12.87;50.38
44297;BME280;51842;47.450;8.654;2023-03-13T20:09:53;93961.00;;;12.81;50.23
44297;BME280;51842;47.450;8.654;2023-03-13T20:12:19;93981.44;;;12.77;51.45
44297;BME280;51842;47.450;8.654;2023-03-13T20:14:45;94004.22;;;12.74;51.99
44297;BME280;51842;47.450;8.654;2023-03-13T20:17:10;93969.97;;;12.67;50.51
44297;BME280;51842;47.450;8.654;2023-03-13T20:19:36;93999.66;;;12.66;53.18
44297;BME280;51842;47.450;8.654;2023-03-13T20:22:02;94021.22;;;12.61;52.53
44297;BME280;51842;47.450;8.654;2023-03-13T20:24:31;94157.13;;;12.54;54.75
44297;BME280;51842;47.450;8.654;2023-03-13T20:27:01;94109.34;;;12.61;64.91
44297;BME280;51842;47.450;8.654;2023-03-13T20:29:27;94110.00;;;12.66;69.25
44297;BME280;51842;47.450;8.654;2023-03-13T20:31:55;94085.13;;;12.48;74.71
44297;BME280;51842;47.450;8.654;2023-03-13T20:34:25;94119.00;;;12.22;77.29
44297;BME280;51842;47.450;8.654;2023-03-13T20:36:51;94152.09;;;12.12;78.66
44297;BME280;51842;47.450;8.654;2023-03-13T20:39:27;94190.00;;;11.92;80.83
44297;BME280;51842;47.450;8.654;2023-03-13T20:41:53;94164.97;;;11.79;82.03
44297;BME280;51842;47.450;8.654;2023-03-13T20:44:22;94171.50;;;11.73;82.87
44297;BME280;51842;47.450;8.654;2023-03-13T20:46:48;94169.91;;;11.63;84.12
44297;BME280;51842;47.450;8.654;2023-03-13T20:49:14;94166.13;;;11.64;84.70
44297;BME280;51842;47.450;8.654;2023-03-13T20:51:40;94180.06;;;11.61;85.59
44297;BME280;51842;47.450;8.654;2023-03-13T20:54:06;94163.56;;;11.59;86.10
44297;BME280;51842;47.450;8.654;2023-03-13T20:56:32;94165.59;;;11.53;85.91
44297;BME280;51842;47.450;8.654;2023-03-13T20:58:58;94163.41;;;11.55;87.55
44297;BME280;51842;47.450;8.654;2023-03-13T21:01:24;94148.63;;;11.49;88.05
44297;BME280;51842;47.450;8.654;2023-03-13T21:03:50;94103.44;;;11.44;88.81
44297;BME280;51842;47.450;8.654;2023-03-13T21:06:18;94097.25;;;11.35;87.10
44297;BME280;51842;47.450;8.654;2023-03-13T21:08:45;94095.38;;;11.35;87.64
44297;BME280;51842;47.450;8.654;2023-03-13T21:11:18;94097.56;;;11.33;88.45
44297;BME280;51842;47.450;8.654;2023-03-13T21:13:46;94098.66;;;11.32;88.20
44297;BME280;51842;47.450;8.654;2023-03-13T21:16:15;94092.22;;;11.33;87.71